sensor_id;sensor_type;location;lat;lon;timestamp;temperature;humidity
23251;DHT22;11794;49.730;10.088;2022-08-23T00:01:13;17.20;99.90
23251;DHT22;11794;49.730;10.088;2022-08-23T00:03:40;17.20;99.90
23251;DHT22;11794;49.730;10.088;2022-08-23T00:06:08;17.20;99.90
23251;DHT22;11794;49.730;10.088;2022-08-23T00:08:34;17.30;99.90
23251;DHT22;11794;49.730;10.088;2022-08-23T00:11:00;17.40;99.90
23251;DHT22;11794;49.730;10.088;2022-08-23T00:13:26;17.40;99.90
23251;DHT22;11794;49.730;10.088;2022-08-23T00:15:53;17.40;99.90
23251;DHT22;11794;49.730;10.088;2022-08-23T00:18:19;17.40;99.90
23251;DHT22;11794;49.730;10.088;2022-08-23T00:20:45;17.40;99.90
23251;DHT22;11794;49.730;10.088;2022-08-23T00:23:11;17.30;99.90
23251;DHT22;11794;49.730;10.088;2022-08-23T00:25:37;17.30;99.90
23251;DHT22;11794;49.730;10.088;2022-08-23T00:28:02;17.20;99.90
23251;DHT22;11794;49.730;10.088;2022-08-23T00:30:28;17.20;99.90
23251;DHT22;11794;49.730;10.088;2022-08-23T00:32:53;17.10;99.90
23251;DHT22;11794;49.730;10.088;2022-08-23T00:35:19;17.00;99.90
23251;DHT22;11794;49.730;10.088;2022-08-23T00:37:45;16.80;99.90
23251;DHT22;11794;49.730;10.088;2022-08-23T00:40:13;16.70;99.90
23251;DHT22;11794;49.730;10.088;2022-08-23T00:42:49;16.50;99.90
23251;DHT22;11794;49.730;10.088;2022-08-23T00:48:28;16.40;99.90
23251;DHT22;11794;49.730;10.088;2022-08-23T00:51:12;16.40;99.90
23251;DHT22;11794;49.730;10.088;2022-08-23T00:53:47;16.40;99.90
23251;DHT22;11794;49.730;10.088;2022-08-23T00:56:16;16.40;99.90
23251;DHT22;11794;49.730;10.088;2022-08-23T00:58:42;16.30;99.90
23251;DHT22;11794;49.730;10.088;2022-08-23T01:01:08;16.30;99.90
23251;DHT22;11794;49.730;10.088;2022-08-23T01:03:37;16.20;99.90
23251;DHT22;11794;49.730;10.088;2022-08-23T01:06:09;16.20;99.90
23251;DHT22;11794;49.730;10.088;2022-08-23T01:08:37;16.10;99.90
23251;DHT22;11794;49.730;10.088;2022-08-23T01:11:13;16.10;99.90
23251;DHT22;11794;49.730;10.088;2022-08-23T01:13:56;16.10;99.90
23251;DHT22;11794;49.730;10.088;2022-08-23T01:16:53;16.10;99.90
23251;DHT22;11794;49.730;10.088;2022-08-23T01:19:36;16.20;99.90
23251;DHT22;11794;49.730;10.088;2022-08-23T01:22:18;16.40;99.90
23251;DHT22;11794;49.730;10.088;2022-08-23T01:24:46;16.20;99.90
23251;DHT22;11794;49.730;10.088;2022-08-23T01:27:12;16.10;99.90
23251;DHT22;11794;49.730;10.088;2022-08-23T01:29:39;16.20;99.90
23251;DHT22;11794;49.730;10.088;2022-08-23T01:32:09;16.10;99.90
23251;DHT22;11794;49.730;10.088;2022-08-23T01:34:36;15.80;99.90
23251;DHT22;11794;49.730;10.088;2022-08-23T01:37:05;15.70;99.90
23251;DHT22;11794;49.730;10.088;2022-08-23T01:39:32;15.60;99.90
23251;DHT22;11794;49.730;10.088;2022-08-23T01:41:58;15.50;99.90
23251;DHT22;11794;49.730;10.088;2022-08-23T01:44:24;15.40;99.90
23251;DHT22;11794;49.730;10.088;2022-08-23T01:46:51;15.30;99.90
23251;DHT22;11794;49.730;10.088;2022-08-23T01:49:17;15.30;99.90
23251;DHT22;11794;49.730;10.088;2022-08-23T01:51:42;15.30;99.90
23251;DHT22;11794;49.730;10.088;2022-08-23T01:54:08;15.20;99.90
23251;DHT22;11794;49.730;10.088;2022-08-23T01:56:34;15.10;99.90
23251;DHT22;11794;49.730;10.088;2022-08-23T01:59:00;15.10;99.90
23251;DHT22;11794;49.730;10.088;2022-08-23T02:01:26;15.10;99.90
23251;DHT22;11794;49.730;10.088;2022-08-23T02:03:51;15.20;99.90
23251;DHT22;11794;49.730;10.088;2022-08-23T02:06:17;15.20;99.90
23251;DHT22;11794;49.730;10.088;2022-08-23T02:08:43;15.10;99.90
23251;DHT22;11794;49.730;10.088;2022-08-23T02:11:34;15.00;99.90
23251;DHT22;11794;49.730;10.088;2022-08-23T02:14:02;15.00;99.90
23251;DHT22;11794;49.730;10.088;2022-08-23T02:16:43;15.00;99.90
23251;DHT22;11794;49.730;10.088;2022-08-23T02:19:12;15.00;99.90
23251;DHT22;11794;49.730;10.088;2022-08-23T02:21:39;15.00;99.90
23251;DHT22;11794;49.730;10.088;2022-08-23T02:24:08;15.00;99.90
23251;DHT22;11794;49.730;10.088;2022-08-23T02:26:35;14.90;99.90
23251;DHT22;11794;49.730;10.088;2022-08-23T02:29:01;14.90;99.90
23251;DHT22;11794;49.730;10.088;2022-08-23T02:31:26;14.90;99.90
23251;DHT22;11794;49.730;10.088;2022-08-23T02:33:52;14.90;99.90
23251;DHT22;11794;49.730;10.088;2022-08-23T02:36:17;14.90;99.90
23251;DHT22;11794;49.730;10.088;2022-08-23T02:38:43;14.90;99.90
23251;DHT22;11794;49.730;10.088;2022-08-23T02:41:08;14.80;99.90
23251;DHT22;11794;49.730;10.088;2022-08-23T02:43:34;14.90;99.90
23251;DHT22;11794;49.730;10.088;2022-08-23T02:46:03;14.80;99.90
23251;DHT22;11794;49.730;10.088;2022-08-23T02:48:32;14.80;99.90
23251;DHT22;11794;49.730;10.088;2022-08-23T02:50:59;14.80;99.90
23251;DHT22;11794;49.730;10.088;2022-08-23T02:53:25;14.70;99.90
23251;DHT22;11794;49.730;10.088;2022-08-23T02:55:50;14.70;99.90
23251;DHT22;11794;49.730;10.088;2022-08-23T02:58:16;14.60;99.90
23251;DHT22;11794;49.730;10.088;2022-08-23T03:00:48;14.60;99.90
23251;DHT22;11794;49.730;10.088;2022-08-23T03:03:15;14.60;99.90
23251;DHT22;11794;49.730;10.088;2022-08-23T03:05:41;14.50;99.90
23251;DHT22;11794;49.730;10.088;2022-08-23T03:08:06;14.50;99.90
23251;DHT22;11794;49.730;10.088;2022-08-23T03:10:32;14.40;99.90
23251;DHT22;11794;49.730;10.088;2022-08-23T03:12:58;14.40;99.90
23251;DHT22;11794;49.730;10.088;2022-08-23T03:15:24;14.40;99.90
23251;DHT22;11794;49.730;10.088;2022-08-23T03:17:49;14.40;99.90
23251;DHT22;11794;49.730;10.088;2022-08-23T03:20:15;14.30;99.90
23251;DHT22;11794;49.730;10.088;2022-08-23T03:22:41;14.20;99.90
23251;DHT22;11794;49.730;10.088;2022-08-23T03:25:07;14.10;99.90
23251;DHT22;11794;49.730;10.088;2022-08-23T03:27:33;14.10;99.90
23251;DHT22;11794;49.730;10.088;2022-08-23T03:29:59;14.00;99.90
23251;DHT22;11794;49.730;10.088;2022-08-23T03:32:24;14.00;99.90
23251;DHT22;11794;49.730;10.088;2022-08-23T03:34:51;13.90;99.90
23251;DHT22;11794;49.730;10.088;2022-08-23T03:37:16;13.90;99.90
23251;DHT22;11794;49.730;10.088;2022-08-23T03:39:42;13.90;99.90
23251;DHT22;11794;49.730;10.088;2022-08-23T03:42:08;13.90;99.90
23251;DHT22;11794;49.730;10.088;2022-08-23T03:44:33;13.90;99.90
23251;DHT22;11794;49.730;10.088;2022-08-23T03:46:59;14.00;99.90
23251;DHT22;11794;49.730;10.088;2022-08-23T03:49:25;14.00;99.90
23251;DHT22;11794;49.730;10.088;2022-08-23T03:51:50;14.10;99.90
23251;DHT22;11794;49.730;10.088;2022-08-23T03:54:16;14.10;99.90
23251;DHT22;11794;49.730;10.088;2022-08-23T03:56:57;14.00;99.90
23251;DHT22;11794;49.730;10.088;2022-08-23T03:59:26;14.00;99.90
23251;DHT22;11794;49.730;10.088;2022-08-23T04:01:52;13.90;99.90
23251;DHT22;11794;49.730;10.088;2022-08-23T04:04:18;13.80;99.90
23251;DHT22;11794;49.730;10.088;2022-08-23T04:06:43;13.70;99.90
23251;DHT22;11794;49.730;10.088;2022-08-23T04:09:10;13.70;99.90
23251;DHT22;11794;49.730;10.088;2022-08-23T04:11:36;13.70;99.90
23251;DHT22;11794;49.730;10.088;2022-08-23T04:14:02;13.60;99.90
23251;DHT22;11794;49.730;10.088;2022-08-23T04:16:27;13.60;99.90
23251;DHT22;11794;49.730;10.088;2022-08-23T04:18:54;13.60;99.90
23251;DHT22;11794;49.730;10.088;2022-08-23T04:21:21;13.60;99.90
23251;DHT22;11794;49.730;10.088;2022-08-23T04:23:48;13.60;99.90
23251;DHT22;11794;49.730;10.088;2022-08-23T04:26:13;13.60;99.90
23251;DHT22;11794;49.730;10.088;2022-08-23T04:28:39;13.50;99.90
23251;DHT22;11794;49.730;10.088;2022-08-23T04:31:05;13.50;99.90
23251;DHT22;11794;49.730;10.088;2022-08-23T04:33:31;13.50;99.90
23251;DHT22;11794;49.730;10.088;2022-08-23T04:36:01;13.50;99.90
23251;DHT22;11794;49.730;10.088;2022-08-23T04:38:27;13.40;99.90
23251;DHT22;11794;49.730;10.088;2022-08-23T04:40:54;13.40;99.90
23251;DHT22;11794;49.730;10.088;2022-08-23T04:43:39;13.40;99.90
23251;DHT22;11794;49.730;10.088;2022-08-23T04:46:04;13.40;99.90
23251;DHT22;11794;49.730;10.088;2022-08-23T04:48:31;13.30;99.90
23251;DHT22;11794;49.730;10.088;2022-08-23T04:50:56;13.30;99.90
23251;DHT22;11794;49.730;10.088;2022-08-23T04:53:22;13.40;99.90
23251;DHT22;11794;49.730;10.088;2022-08-23T04:55:48;13.40;99.90
23251;DHT22;11794;49.730;10.088;2022-08-23T04:58:14;13.50;99.90
23251;DHT22;11794;49.730;10.088;2022-08-23T05:00:40;13.50;99.90
23251;DHT22;11794;49.730;10.088;2022-08-23T05:03:06;13.60;99.90
23251;DHT22;11794;49.730;10.088;2022-08-23T05:05:32;13.70;99.90
23251;DHT22;11794;49.730;10.088;2022-08-23T05:07:58;13.80;99.90
23251;DHT22;11794;49.730;10.088;2022-08-23T05:10:24;13.80;99.90
23251;DHT22;11794;49.730;10.088;2022-08-23T05:12:49;13.80;99.90
23251;DHT22;11794;49.730;10.088;2022-08-23T05:15:15;13.90;99.90
23251;DHT22;11794;49.730;10.088;2022-08-23T05:17:41;13.90;99.90
23251;DHT22;11794;49.730;10.088;2022-08-23T05:20:08;14.00;99.90
23251;DHT22;11794;49.730;10.088;2022-08-23T05:22:36;14.00;99.90
23251;DHT22;11794;49.730;10.088;2022-08-23T05:25:03;14.10;99.90
23251;DHT22;11794;49.730;10.088;2022-08-23T05:27:29;14.10;99.90
23251;DHT22;11794;49.730;10.088;2022-08-23T05:29:54;14.20;99.90
23251;DHT22;11794;49.730;10.088;2022-08-23T05:32:21;14.30;99.90
23251;DHT22;11794;49.730;10.088;2022-08-23T05:34:47;14.40;99.90
23251;DHT22;11794;49.730;10.088;2022-08-23T05:37:13;14.50;99.90
23251;DHT22;11794;49.730;10.088;2022-08-23T05:39:39;14.70;99.90
23251;DHT22;11794;49.730;10.088;2022-08-23T05:42:07;14.80;99.90
23251;DHT22;11794;49.730;10.088;2022-08-23T05:44:32;14.90;99.90
23251;DHT22;11794;49.730;10.088;2022-08-23T05:46:58;15.00;99.90
23251;DHT22;11794;49.730;10.088;2022-08-23T05:49:24;15.10;99.90
23251;DHT22;11794;49.730;10.088;2022-08-23T05:51:49;15.20;99.90
23251;DHT22;11794;49.730;10.088;2022-08-23T05:54:15;15.30;99.90
23251;DHT22;11794;49.730;10.088;2022-08-23T05:56:41;15.50;99.90
23251;DHT22;11794;49.730;10.088;2022-08-23T05:59:11;15.60;99.90
23251;DHT22;11794;49.730;10.088;2022-08-23T06:01:38;15.70;99.90
23251;DHT22;11794;49.730;10.088;2022-08-23T06:04:06;15.90;99.90
23251;DHT22;11794;49.730;10.088;2022-08-23T06:06:33;16.10;99.90
23251;DHT22;11794;49.730;10.088;2022-08-23T06:08:59;16.20;99.90
23251;DHT22;11794;49.730;10.088;2022-08-23T06:11:27;16.20;99.90
23251;DHT22;11794;49.730;10.088;2022-08-23T06:13:57;16.30;99.90
23251;DHT22;11794;49.730;10.088;2022-08-23T06:16:29;16.50;99.90
23251;DHT22;11794;49.730;10.088;2022-08-23T06:18:57;16.60;99.90
23251;DHT22;11794;49.730;10.088;2022-08-23T06:21:25;16.70;99.90
23251;DHT22;11794;49.730;10.088;2022-08-23T06:23:50;16.80;99.90
23251;DHT22;11794;49.730;10.088;2022-08-23T06:26:23;16.90;99.90
23251;DHT22;11794;49.730;10.088;2022-08-23T06:28:52;17.00;99.90
23251;DHT22;11794;49.730;10.088;2022-08-23T06:31:20;17.20;99.90
23251;DHT22;11794;49.730;10.088;2022-08-23T06:34:08;17.30;99.90
23251;DHT22;11794;49.730;10.088;2022-08-23T06:36:34;17.50;99.90
23251;DHT22;11794;49.730;10.088;2022-08-23T06:39:00;17.60;99.90
23251;DHT22;11794;49.730;10.088;2022-08-23T06:41:26;17.60;99.90
23251;DHT22;11794;49.730;10.088;2022-08-23T06:43:53;17.80;99.90
23251;DHT22;11794;49.730;10.088;2022-08-23T06:46:24;17.80;99.90
23251;DHT22;11794;49.730;10.088;2022-08-23T06:48:50;18.00;99.90
23251;DHT22;11794;49.730;10.088;2022-08-23T06:51:23;18.10;99.90
23251;DHT22;11794;49.730;10.088;2022-08-23T06:53:50;18.20;99.90
23251;DHT22;11794;49.730;10.088;2022-08-23T06:56:16;18.30;99.90
23251;DHT22;11794;49.730;10.088;2022-08-23T06:58:41;18.40;99.90
23251;DHT22;11794;49.730;10.088;2022-08-23T07:03:34;18.70;99.90
23251;DHT22;11794;49.730;10.088;2022-08-23T07:05:59;18.80;99.90
23251;DHT22;11794;49.730;10.088;2022-08-23T07:08:26;19.00;99.90
23251;DHT22;11794;49.730;10.088;2022-08-23T07:10:55;19.10;99.90
23251;DHT22;11794;49.730;10.088;2022-08-23T07:13:20;19.30;99.90
23251;DHT22;11794;49.730;10.088;2022-08-23T07:15:47;19.40;99.90
23251;DHT22;11794;49.730;10.088;2022-08-23T07:18:13;19.40;99.90
23251;DHT22;11794;49.730;10.088;2022-08-23T07:20:38;19.40;99.90
23251;DHT22;11794;49.730;10.088;2022-08-23T07:23:04;19.50;99.90
23251;DHT22;11794;49.730;10.088;2022-08-23T07:25:30;19.60;99.90
23251;DHT22;11794;49.730;10.088;2022-08-23T07:27:57;19.70;99.90
23251;DHT22;11794;49.730;10.088;2022-08-23T07:30:22;19.80;99.90
23251;DHT22;11794;49.730;10.088;2022-08-23T07:32:49;20.10;99.90
23251;DHT22;11794;49.730;10.088;2022-08-23T07:35:14;20.30;99.90
23251;DHT22;11794;49.730;10.088;2022-08-23T07:37:40;20.30;99.90
23251;DHT22;11794;49.730;10.088;2022-08-23T07:40:07;20.60;99.90
23251;DHT22;11794;49.730;10.088;2022-08-23T07:42:33;20.90;99.90
23251;DHT22;11794;49.730;10.088;2022-08-23T07:44:58;21.10;99.90
23251;DHT22;11794;49.730;10.088;2022-08-23T07:47:24;21.50;99.90
23251;DHT22;11794;49.730;10.088;2022-08-23T07:49:49;21.60;99.90
23251;DHT22;11794;49.730;10.088;2022-08-23T07:52:15;21.70;99.90
23251;DHT22;11794;49.730;10.088;2022-08-23T07:54:41;22.40;99.90
23251;DHT22;11794;49.730;10.088;2022-08-23T07:57:06;23.10;99.90
23251;DHT22;11794;49.730;10.088;2022-08-23T07:59:32;23.70;99.90
23251;DHT22;11794;49.730;10.088;2022-08-23T08:01:58;24.00;99.90
23251;DHT22;11794;49.730;10.088;2022-08-23T08:04:24;24.50;99.90
23251;DHT22;11794;49.730;10.088;2022-08-23T08:06:49;24.90;98.90
23251;DHT22;11794;49.730;10.088;2022-08-23T08:09:16;25.40;97.20
23251;DHT22;11794;49.730;10.088;2022-08-23T08:11:46;25.60;96.40
23251;DHT22;11794;49.730;10.088;2022-08-23T08:14:13;26.20;94.70
23251;DHT22;11794;49.730;10.088;2022-08-23T08:16:42;26.10;94.60
23251;DHT22;11794;49.730;10.088;2022-08-23T08:19:09;25.70;94.60
23251;DHT22;11794;49.730;10.088;2022-08-23T08:21:37;25.80;95.10
23251;DHT22;11794;49.730;10.088;2022-08-23T08:24:05;26.00;95.60
23251;DHT22;11794;49.730;10.088;2022-08-23T08:26:30;26.40;93.50
23251;DHT22;11794;49.730;10.088;2022-08-23T08:28:56;27.00;93.50
23251;DHT22;11794;49.730;10.088;2022-08-23T08:31:25;27.20;92.90
23251;DHT22;11794;49.730;10.088;2022-08-23T08:33:51;27.20;92.20
23251;DHT22;11794;49.730;10.088;2022-08-23T08:36:38;27.50;91.60
23251;DHT22;11794;49.730;10.088;2022-08-23T08:39:07;27.50;91.60
23251;DHT22;11794;49.730;10.088;2022-08-23T08:41:59;27.70;90.70
23251;DHT22;11794;49.730;10.088;2022-08-23T08:44:54;28.00;90.70
23251;DHT22;11794;49.730;10.088;2022-08-23T08:52:30;29.10;87.40
23251;DHT22;11794;49.730;10.088;2022-08-23T08:55:03;29.40;86.50
23251;DHT22;11794;49.730;10.088;2022-08-23T08:57:34;29.60;85.00
23251;DHT22;11794;49.730;10.088;2022-08-23T09:00:07;29.50;83.10
23251;DHT22;11794;49.730;10.088;2022-08-23T09:02:34;29.50;82.60
23251;DHT22;11794;49.730;10.088;2022-08-23T09:05:03;29.70;83.40
23251;DHT22;11794;49.730;10.088;2022-08-23T09:07:42;29.90;81.40
23251;DHT22;11794;49.730;10.088;2022-08-23T09:13:27;29.90;77.30
23251;DHT22;11794;49.730;10.088;2022-08-23T09:16:17;30.00;78.90
23251;DHT22;11794;49.730;10.088;2022-08-23T09:18:45;30.20;78.60
23251;DHT22;11794;49.730;10.088;2022-08-23T09:21:14;30.50;77.90
23251;DHT22;11794;49.730;10.088;2022-08-23T09:23:42;30.60;77.40
23251;DHT22;11794;49.730;10.088;2022-08-23T09:26:18;30.30;77.50
23251;DHT22;11794;49.730;10.088;2022-08-23T09:28:48;30.30;78.60
23251;DHT22;11794;49.730;10.088;2022-08-23T09:31:36;30.40;78.20
23251;DHT22;11794;49.730;10.088;2022-08-23T09:34:02;30.70;76.50
23251;DHT22;11794;49.730;10.088;2022-08-23T09:36:31;31.20;75.50
23251;DHT22;11794;49.730;10.088;2022-08-23T09:39:01;31.30;76.30
23251;DHT22;11794;49.730;10.088;2022-08-23T09:41:36;31.50;75.20
23251;DHT22;11794;49.730;10.088;2022-08-23T09:44:04;31.40;75.00
23251;DHT22;11794;49.730;10.088;2022-08-23T09:46:34;31.30;74.70
23251;DHT22;11794;49.730;10.088;2022-08-23T09:51:46;31.50;72.80
23251;DHT22;11794;49.730;10.088;2022-08-23T09:54:16;31.60;72.30
23251;DHT22;11794;49.730;10.088;2022-08-23T09:56:44;32.20;71.60
23251;DHT22;11794;49.730;10.088;2022-08-23T10:01:53;32.20;71.20
23251;DHT22;11794;49.730;10.088;2022-08-23T10:07:40;32.20;68.30
23251;DHT22;11794;49.730;10.088;2022-08-23T10:12:38;32.90;70.50
23251;DHT22;11794;49.730;10.088;2022-08-23T10:15:04;33.20;70.70
23251;DHT22;11794;49.730;10.088;2022-08-23T10:17:37;33.80;69.80
23251;DHT22;11794;49.730;10.088;2022-08-23T10:20:25;33.80;66.30
23251;DHT22;11794;49.730;10.088;2022-08-23T10:23:08;33.80;67.80
23251;DHT22;11794;49.730;10.088;2022-08-23T10:25:47;34.00;65.10
23251;DHT22;11794;49.730;10.088;2022-08-23T10:31:19;33.70;65.50
23251;DHT22;11794;49.730;10.088;2022-08-23T10:36:28;34.10;63.00
23251;DHT22;11794;49.730;10.088;2022-08-23T10:39:06;34.60;61.20
23251;DHT22;11794;49.730;10.088;2022-08-23T10:41:58;34.80;60.80
23251;DHT22;11794;49.730;10.088;2022-08-23T10:49:49;34.30;60.30
23251;DHT22;11794;49.730;10.088;2022-08-23T10:52:20;34.60;61.00
23251;DHT22;11794;49.730;10.088;2022-08-23T10:54:53;35.00;60.30
23251;DHT22;11794;49.730;10.088;2022-08-23T10:57:36;35.10;59.90
23251;DHT22;11794;49.730;10.088;2022-08-23T11:00:08;35.40;59.60
23251;DHT22;11794;49.730;10.088;2022-08-23T11:03:00;35.20;57.20
23251;DHT22;11794;49.730;10.088;2022-08-23T11:05:30;35.40;58.70
23251;DHT22;11794;49.730;10.088;2022-08-23T11:08:08;35.50;58.10
23251;DHT22;11794;49.730;10.088;2022-08-23T11:20:58;35.50;58.90
23251;DHT22;11794;49.730;10.088;2022-08-23T11:23:43;35.90;57.30
23251;DHT22;11794;49.730;10.088;2022-08-23T11:31:33;36.00;56.60
23251;DHT22;11794;49.730;10.088;2022-08-23T11:36:35;35.90;55.40
23251;DHT22;11794;49.730;10.088;2022-08-23T11:39:11;35.60;54.80
23251;DHT22;11794;49.730;10.088;2022-08-23T11:44:36;35.60;55.50
23251;DHT22;11794;49.730;10.088;2022-08-23T11:47:07;36.40;54.40
23251;DHT22;11794;49.730;10.088;2022-08-23T11:52:36;36.20;55.10
23251;DHT22;11794;49.730;10.088;2022-08-23T11:55:22;36.10;54.40
23251;DHT22;11794;49.730;10.088;2022-08-23T11:58:11;36.30;53.90
23251;DHT22;11794;49.730;10.088;2022-08-23T12:01:03;36.60;54.70
23251;DHT22;11794;49.730;10.088;2022-08-23T12:03:35;37.50;53.10
23251;DHT22;11794;49.730;10.088;2022-08-23T12:08:49;37.50;52.40
23251;DHT22;11794;49.730;10.088;2022-08-23T12:11:17;37.40;52.90
23251;DHT22;11794;49.730;10.088;2022-08-23T12:13:56;37.30;52.00
23251;DHT22;11794;49.730;10.088;2022-08-23T12:24:17;38.40;50.70
23251;DHT22;11794;49.730;10.088;2022-08-23T12:29:59;39.10;50.80
23251;DHT22;11794;49.730;10.088;2022-08-23T12:37:49;39.30;49.20
23251;DHT22;11794;49.730;10.088;2022-08-23T12:40:46;39.20;48.80
23251;DHT22;11794;49.730;10.088;2022-08-23T12:45:41;39.10;48.80
23251;DHT22;11794;49.730;10.088;2022-08-23T12:48:09;39.10;48.60
23251;DHT22;11794;49.730;10.088;2022-08-23T12:50:38;39.30;48.10
23251;DHT22;11794;49.730;10.088;2022-08-23T12:53:07;39.70;47.90
23251;DHT22;11794;49.730;10.088;2022-08-23T12:55:40;39.70;47.50
23251;DHT22;11794;49.730;10.088;2022-08-23T12:58:06;39.60;47.30
23251;DHT22;11794;49.730;10.088;2022-08-23T13:00:37;39.50;47.20
23251;DHT22;11794;49.730;10.088;2022-08-23T13:03:11;40.10;47.50
23251;DHT22;11794;49.730;10.088;2022-08-23T13:05:46;39.50;46.80
23251;DHT22;11794;49.730;10.088;2022-08-23T13:08:26;39.80;47.40
23251;DHT22;11794;49.730;10.088;2022-08-23T13:10:52;40.60;46.20
23251;DHT22;11794;49.730;10.088;2022-08-23T13:13:22;40.90;45.90
23251;DHT22;11794;49.730;10.088;2022-08-23T13:16:25;41.40;45.70
23251;DHT22;11794;49.730;10.088;2022-08-23T13:18:51;41.30;44.90
23251;DHT22;11794;49.730;10.088;2022-08-23T13:21:28;40.80;45.90
23251;DHT22;11794;49.730;10.088;2022-08-23T13:24:33;40.50;45.90
23251;DHT22;11794;49.730;10.088;2022-08-23T13:27:12;40.60;45.10
23251;DHT22;11794;49.730;10.088;2022-08-23T13:32:40;42.50;43.80
23251;DHT22;11794;49.730;10.088;2022-08-23T13:35:37;42.80;43.20
23251;DHT22;11794;49.730;10.088;2022-08-23T13:40:50;42.80;43.40
23251;DHT22;11794;49.730;10.088;2022-08-23T13:48:53;41.50;44.20
23251;DHT22;11794;49.730;10.088;2022-08-23T13:54:04;40.50;44.30
23251;DHT22;11794;49.730;10.088;2022-08-23T13:56:34;40.50;45.00
23251;DHT22;11794;49.730;10.088;2022-08-23T13:59:04;40.80;44.60
23251;DHT22;11794;49.730;10.088;2022-08-23T14:01:31;41.00;44.40
23251;DHT22;11794;49.730;10.088;2022-08-23T14:03:57;40.10;44.80
23251;DHT22;11794;49.730;10.088;2022-08-23T14:06:23;40.20;45.30
23251;DHT22;11794;49.730;10.088;2022-08-23T14:08:49;40.50;45.30
23251;DHT22;11794;49.730;10.088;2022-08-23T14:11:15;40.50;44.70
23251;DHT22;11794;49.730;10.088;2022-08-23T14:13:44;40.40;44.70
23251;DHT22;11794;49.730;10.088;2022-08-23T14:16:15;40.50;44.80
23251;DHT22;11794;49.730;10.088;2022-08-23T14:18:42;41.10;44.40
23251;DHT22;11794;49.730;10.088;2022-08-23T14:21:08;41.10;44.00
23251;DHT22;11794;49.730;10.088;2022-08-23T14:23:33;40.50;43.70
23251;DHT22;11794;49.730;10.088;2022-08-23T14:25:59;39.80;44.50
23251;DHT22;11794;49.730;10.088;2022-08-23T14:28:27;39.30;44.80
23251;DHT22;11794;49.730;10.088;2022-08-23T14:30:54;39.00;44.60
23251;DHT22;11794;49.730;10.088;2022-08-23T14:33:20;38.90;44.80
23251;DHT22;11794;49.730;10.088;2022-08-23T14:35:46;38.70;45.40
23251;DHT22;11794;49.730;10.088;2022-08-23T14:38:12;38.90;46.10
23251;DHT22;11794;49.730;10.088;2022-08-23T14:40:41;38.60;46.00
23251;DHT22;11794;49.730;10.088;2022-08-23T14:43:09;38.00;47.10
23251;DHT22;11794;49.730;10.088;2022-08-23T14:45:35;37.40;47.30
23251;DHT22;11794;49.730;10.088;2022-08-23T14:48:01;37.70;47.10
23251;DHT22;11794;49.730;10.088;2022-08-23T14:50:26;37.70;47.00
23251;DHT22;11794;49.730;10.088;2022-08-23T14:52:52;37.10;47.90
23251;DHT22;11794;49.730;10.088;2022-08-23T14:55:18;36.10;47.50
23251;DHT22;11794;49.730;10.088;2022-08-23T14:57:43;35.20;48.60
23251;DHT22;11794;49.730;10.088;2022-08-23T15:00:10;34.40;50.40
23251;DHT22;11794;49.730;10.088;2022-08-23T15:02:42;33.90;51.00
23251;DHT22;11794;49.730;10.088;2022-08-23T15:05:09;33.50;50.90
23251;DHT22;11794;49.730;10.088;2022-08-23T15:07:36;32.90;52.60
23251;DHT22;11794;49.730;10.088;2022-08-23T15:10:01;32.50;52.80
23251;DHT22;11794;49.730;10.088;2022-08-23T15:12:27;32.30;53.10
23251;DHT22;11794;49.730;10.088;2022-08-23T15:14:52;32.30;53.30
23251;DHT22;11794;49.730;10.088;2022-08-23T15:17:18;32.20;53.20
23251;DHT22;11794;49.730;10.088;2022-08-23T15:19:44;32.00;53.40
23251;DHT22;11794;49.730;10.088;2022-08-23T15:22:09;31.80;54.30
23251;DHT22;11794;49.730;10.088;2022-08-23T15:24:35;31.70;53.60
23251;DHT22;11794;49.730;10.088;2022-08-23T15:27:01;31.40;54.30
23251;DHT22;11794;49.730;10.088;2022-08-23T15:29:27;31.20;54.60
23251;DHT22;11794;49.730;10.088;2022-08-23T15:31:53;31.00;55.20
23251;DHT22;11794;49.730;10.088;2022-08-23T15:34:20;31.00;54.60
23251;DHT22;11794;49.730;10.088;2022-08-23T15:36:46;30.80;54.20
23251;DHT22;11794;49.730;10.088;2022-08-23T15:39:12;30.70;54.70
23251;DHT22;11794;49.730;10.088;2022-08-23T15:41:37;30.50;55.50
23251;DHT22;11794;49.730;10.088;2022-08-23T15:44:03;30.50;55.70
23251;DHT22;11794;49.730;10.088;2022-08-23T15:46:29;30.40;55.50
23251;DHT22;11794;49.730;10.088;2022-08-23T15:48:56;30.20;56.80
23251;DHT22;11794;49.730;10.088;2022-08-23T15:51:23;30.10;56.80
23251;DHT22;11794;49.730;10.088;2022-08-23T15:53:49;30.20;56.90
23251;DHT22;11794;49.730;10.088;2022-08-23T15:56:19;30.30;56.90
23251;DHT22;11794;49.730;10.088;2022-08-23T15:58:46;30.40;55.90
23251;DHT22;11794;49.730;10.088;2022-08-23T16:01:11;30.30;56.00
23251;DHT22;11794;49.730;10.088;2022-08-23T16:03:39;30.20;56.10
23251;DHT22;11794;49.730;10.088;2022-08-23T16:06:09;30.20;56.50
23251;DHT22;11794;49.730;10.088;2022-08-23T16:08:36;30.40;55.50
23251;DHT22;11794;49.730;10.088;2022-08-23T16:11:03;30.50;56.40
23251;DHT22;11794;49.730;10.088;2022-08-23T16:13:33;30.60;56.80
23251;DHT22;11794;49.730;10.088;2022-08-23T16:15:58;30.50;55.60
23251;DHT22;11794;49.730;10.088;2022-08-23T16:18:24;30.50;56.30
23251;DHT22;11794;49.730;10.088;2022-08-23T16:20:50;30.50;56.80
23251;DHT22;11794;49.730;10.088;2022-08-23T16:23:15;30.50;56.20
23251;DHT22;11794;49.730;10.088;2022-08-23T16:25:41;30.30;55.80
23251;DHT22;11794;49.730;10.088;2022-08-23T16:28:07;30.00;57.00
23251;DHT22;11794;49.730;10.088;2022-08-23T16:30:33;30.00;56.70
23251;DHT22;11794;49.730;10.088;2022-08-23T16:32:59;29.90;56.30
23251;DHT22;11794;49.730;10.088;2022-08-23T16:35:25;29.70;56.20
23251;DHT22;11794;49.730;10.088;2022-08-23T16:37:50;29.50;56.70
23251;DHT22;11794;49.730;10.088;2022-08-23T16:40:16;29.50;56.90
23251;DHT22;11794;49.730;10.088;2022-08-23T16:42:42;29.40;57.70
23251;DHT22;11794;49.730;10.088;2022-08-23T16:45:08;29.40;57.70
23251;DHT22;11794;49.730;10.088;2022-08-23T16:47:39;29.40;57.90
23251;DHT22;11794;49.730;10.088;2022-08-23T16:50:06;29.30;57.60
23251;DHT22;11794;49.730;10.088;2022-08-23T16:52:32;29.30;57.90
23251;DHT22;11794;49.730;10.088;2022-08-23T16:54:59;29.40;58.10
23251;DHT22;11794;49.730;10.088;2022-08-23T16:57:25;29.30;57.90
23251;DHT22;11794;49.730;10.088;2022-08-23T16:59:51;29.30;58.20
23251;DHT22;11794;49.730;10.088;2022-08-23T17:02:31;29.20;57.60